Terminal Aerodrome Forecast
Issued by NWS Wilmington, NC

Home | Current Version | Previous Version | Text Only | Print | Product List | Glossary On
Versions: 1 2 3 4 5 6 7 8 9 10 11 12 13 14 15 16 17 18 19 20 21 22 23 24 25
000
FTUS42 KILM 241700
TAFFLO
TAF
KFLO 241721Z 2418/2518 25013KT P6SM VCTS SCT040CB SCT100
      TEMPO 2420/2424 VRB20KT 3SM TSRA BKN020CB
     FM250100 27007KT P6SM -SHRA SCT050 BKN100
     FM250300 25004KT P6SM SCT050 SCT100 BKN250
     FM250900 VRB03KT 4SM BR FEW040 SCT090
     FM251400 01005KT P6SM VCSH SCT050 BKN100=

USA.gov is the U.S. government's official web portal to all federal, state and local government web resources and services.